Time;durP1;ratioP1;P1;durP2;ratioP2;P2;SDS_P1;SDS_P2;PMS_P1;PMS_P2;Temp;Humidity;BMP_temperature;BMP_pressure;BME280_temperature;BME280_humidity;BME280_pressure;Samples;Min_cycle;Max_cycle;Signal;HPM_P1;HPM_P2
2023/01/31 00:04:44;;;;;;;1.30;1.13;;;;;;;-146.30;100.00;58188.94;10481952;28;20481;-84
2023/01/31 00:09:45;;;;;;;0.30;0.30;;;;;;;-146.30;100.00;58188.94;10491479;28;20139;-85
2023/01/31 00:14:47;;;;;;;1.10;0.80;;;;;;;-146.30;100.00;58188.94;10490813;28;20052;-85
2023/01/31 00:19:52;;;;;;;0.38;0.32;;;;;;;-146.30;100.00;58188.94;10468385;28;20041;-86
2023/01/31 00:24:53;;;;;;;0.00;0.00;;;;;;;-146.30;100.00;58188.94;10472991;28;20110;-82
2023/01/31 00:29:56;;;;;;;0.60;0.55;;;;;;;-146.30;100.00;58188.94;10494494;28;20036;-83
2023/01/31 00:34:57;;;;;;;0.00;0.00;;;;;;;-146.30;100.00;58188.94;10487026;28;20044;-83
2023/01/31 00:40:03;;;;;;;0.00;0.00;;;;;;;-146.30;100.00;58188.94;10490034;28;20052;-83
2023/01/31 00:45:05;;;;;;;0.00;0.00;;;;;;;-146.30;100.00;58188.94;10477524;28;20106;-83
2023/01/31 00:50:12;;;;;;;15.07;1.40;;;;;;;-146.30;100.00;58188.94;10468203;28;20040;-84
2023/01/31 00:55:14;;;;;;;0.00;0.00;;;;;;;-146.30;100.00;58188.94;10484649;28;20064;-83
2023/01/31 01:00:16;;;;;;;0.00;0.00;;;;;;;-146.30;100.00;58188.94;10510961;28;20048;-83
2023/01/31 01:05:19;;;;;;;0.00;0.00;;;;;;;-146.30;100.00;58188.94;10487553;28;20080;-81
2023/01/31 01:10:21;;;;;;;0.00;0.00;;;;;;;-146.30;100.00;58188.94;10494136;28;20493;-82
2023/01/31 01:15:23;;;;;;;0.08;0.08;;;;;;;-146.30;100.00;58188.94;10513114;28;20553;-81
2023/01/31 01:20:24;;;;;;;0.00;0.00;;;;;;;-146.30;100.00;58188.94;10494644;28;20087;-81
2023/01/31 01:25:27;;;;;;;0.75;0.75;;;;;;;-146.30;100.00;58188.94;10483686;28;20045;-80
2023/01/31 01:30:33;;;;;;;0.00;0.00;;;;;;;-146.30;100.00;58188.94;10464941;28;20040;-81
2023/01/31 01:35:35;;;;;;;0.00;0.00;;;;;;;-146.30;100.00;58188.94;10446977;28;20060;-82
2023/01/31 01:40:37;;;;;;;0.00;0.00;;;;;;;-146.30;100.00;58188.94;10460455;28;20041;-81
2023/01/31 01:45:39;;;;;;;0.00;0.00;;;;;;;-146.30;100.00;58188.94;10476647;28;20059;-81
2023/01/31 01:50:47;;;;;;;0.00;0.00;;;;;;;-146.30;100.00;58188.94;10521271;28;20094;-81
2023/01/31 01:55:56;;;;;;;0.00;0.00;;;;;;;-146.30;100.00;58188.94;10486437;28;20461;-81
2023/01/31 02:00:58;;;;;;;0.52;0.47;;;;;;;-146.30;100.00;58188.94;10504157;28;20040;-81
2023/01/31 02:06:03;;;;;;;0.00;0.00;;;;;;;-146.30;100.00;58188.94;10490821;28;20075;-82
2023/01/31 02:11:11;;;;;;;7.70;0.75;;;;;;;-146.30;100.00;58188.94;10489937;28;20072;-81
2023/01/31 02:16:13;;;;;;;0.90;0.90;;;;;;;-146.30;100.00;58188.94;10485286;28;20476;-82
2023/01/31 02:21:25;;;;;;;0.08;0.08;;;;;;;-146.30;100.00;58188.94;10509413;28;20099;-82
2023/01/31 02:26:59;;;;;;;1.65;0.43;;;;;;;-146.30;100.00;58188.94;10476390;28;20123;-82
2023/01/31 02:32:33;;;;;;;0.32;0.17;;;;;;;-146.30;100.00;58188.94;10468791;28;20044;-82
2023/01/31 02:37:54;;;;;;;0.15;0.15;;;;;;;-146.30;100.00;58188.94;10474649;28;20055;-82
2023/01/31 02:43:10;;;;;;;1.88;0.28;;;;;;;-146.30;100.00;58188.94;10468979;28;20044;-82
2023/01/31 02:48:26;;;;;;;0.00;0.00;;;;;;;-146.30;100.00;58188.94;10484518;28;20052;-82
2023/01/31 02:53:42;;;;;;;0.57;0.57;;;;;;;-146.30;100.00;58188.94;10443186;28;20106;-82
2023/01/31 02:59:05;;;;;;;0.00;0.00;;;;;;;-146.30;100.00;58188.94;10471291;28;20063;-82
2023/01/31 03:04:10;;;;;;;0.00;0.00;;;;;;;-146.30;100.00;58188.94;10480267;28;20044;-81
2023/01/31 03:09:28;;;;;;;0.00;0.00;;;;;;;-146.30;100.00;58188.94;10468279;28;20036;-82
2023/01/31 03:14:34;;;;;;;0.00;0.00;;;;;;;-146.30;100.00;58188.94;10475086;28;20458;-82
2023/01/31 03:19:46;;;;;;;0.00;0.00;;;;;;;-146.30;100.00;58188.94;10480825;28;20049;-82
2023/01/31 03:24:50;;;;;;;0.00;0.00;;;;;;;-146.30;100.00;58188.94;10474997;28;20044;-83
2023/01/31 03:30:02;;;;;;;0.00;0.00;;;;;;;-146.30;100.00;58188.94;10493662;28;20483;-83
2023/01/31 03:35:04;;;;;;;0.10;0.10;;;;;;;-146.30;100.00;58188.94;10482435;28;20050;-83
2023/01/31 03:40:26;;;;;;;6.22;0.82;;;;;;;-146.30;100.00;58188.94;10482332;28;20484;-82
2023/01/31 03:45:40;;;;;;;0.10;0.10;;;;;;;-146.30;100.00;58188.94;10483445;28;20391;-82
2023/01/31 03:50:49;;;;;;;0.00;0.00;;;;;;;-146.30;100.00;58188.94;10519820;28;20067;-81
2023/01/31 03:55:58;;;;;;;0.00;0.00;;;;;;;-146.30;100.00;58188.94;10465449;28;20044;-82
2023/01/31 04:01:04;;;;;;;0.17;0.15;;;;;;;-146.30;100.00;58188.94;10464895;28;20055;-82
2023/01/31 04:06:07;;;;;;;0.38;0.38;;;;;;;-146.30;100.00;58188.94;10494237;28;20094;-82
2023/01/31 04:11:12;;;;;;;0.00;0.00;;;;;;;-146.30;100.00;58188.94;10480824;28;20036;-82
2023/01/31 04:16:16;;;;;;;0.22;0.20;;;;;;;-146.30;100.00;58188.94;10455947;28;20052;-82
2023/01/31 04:21:18;;;;;;;0.20;0.20;;;;;;;-146.30;100.00;58188.94;10438742;28;20045;-82
2023/01/31 04:26:20;;;;;;;0.47;0.47;;;;;;;-146.30;100.00;58188.94;10480396;28;20048;-82
2023/01/31 04:31:21;;;;;;;0.28;0.28;;;;;;;-146.30;100.00;58188.94;10498472;28;20040;-83
2023/01/31 04:36:24;;;;;;;0.10;0.05;;;;;;;-146.30;100.00;58188.94;10463865;28;20048;-82
2023/01/31 04:41:26;;;;;;;0.30;0.30;;;;;;;-146.30;100.00;58188.94;10464053;28;20045;-82
2023/01/31 04:46:28;;;;;;;5.25;0.68;;;;;;;-146.30;100.00;58188.94;10480161;28;20110;-82
2023/01/31 04:51:29;;;;;;;21.92;1.00;;;;;;;-146.30;100.00;58188.94;10479785;28;20049;-83
2023/01/31 04:56:31;;;;;;;0.60;0.60;;;;;;;-146.30;100.00;58188.94;10497938;28;20090;-83
2023/01/31 05:01:33;;;;;;;1.85;1.75;;;;;;;-146.30;100.00;58188.94;10479786;28;20395;-83
2023/01/31 05:06:37;;;;;;;0.63;0.20;;;;;;;-146.30;100.00;58188.94;10480588;28;20048;-83
2023/01/31 05:11:39;;;;;;;0.20;0.20;;;;;;;-146.30;100.00;58188.94;10479884;28;20488;-82
2023/01/31 05:16:44;;;;;;;0.22;0.22;;;;;;;-146.30;100.00;58188.94;10463555;28;20049;-82
2023/01/31 05:21:57;;;;;;;1.60;0.30;;;;;;;-146.30;100.00;58188.94;10466839;28;20446;-82
2023/01/31 05:27:01;;;;;;;0.10;0.10;;;;;;;-146.30;100.00;58188.94;10488304;28;20045;-82
2023/01/31 05:32:03;;;;;;;0.00;0.00;;;;;;;-146.30;100.00;58188.94;10478117;28;20044;-83
2023/01/31 05:37:05;;;;;;;0.55;0.52;;;;;;;-146.30;100.00;58188.94;10487702;28;20519;-83
2023/01/31 05:42:07;;;;;;;0.15;0.15;;;;;;;-146.30;100.00;58188.94;10516367;28;20048;-82
2023/01/31 05:47:09;;;;;;;0.15;0.15;;;;;;;-146.30;100.00;58188.94;10474612;28;20463;-81
2023/01/31 05:52:11;;;;;;;0.82;0.80;;;;;;;-146.30;100.00;58188.94;10519316;28;20105;-81
2023/01/31 05:57:15;;;;;;;1.30;0.35;;;;;;;-146.30;100.00;58188.94;10515189;28;20040;-81
2023/01/31 06:02:16;;;;;;;0.63;0.50;;;;;;;-146.30;100.00;58188.94;10505177;28;20044;-81
2023/01/31 06:07:19;;;;;;;0.20;0.20;;;;;;;-146.30;100.00;58188.94;10489248;28;20053;-81
2023/01/31 06:12:20;;;;;;;1.80;0.30;;;;;;;-146.30;100.00;58188.94;10489091;28;20048;-81
2023/01/31 06:17:25;;;;;;;0.08;0.08;;;;;;;-146.30;100.00;58188.94;10489510;28;20040;-81
2023/01/31 06:22:30;;;;;;;4.72;1.10;;;;;;;-146.30;100.00;58188.94;10502248;28;20453;-82
2023/01/31 06:27:33;;;;;;;2.83;2.58;;;;;;;-146.30;100.00;58188.94;10473334;28;20053;-81
2023/01/31 06:32:36;;;;;;;3.08;1.65;;;;;;;-146.30;100.00;58188.94;10482142;28;20508;-79
2023/01/31 06:37:37;;;;;;;3.97;2.88;;;;;;;-146.30;100.00;58188.94;10480919;28;20049;-82
2023/01/31 06:42:39;;;;;;;0.77;0.52;;;;;;;-146.30;100.00;58188.94;10501447;28;20102;-82
2023/01/31 06:47:43;;;;;;;0.25;0.10;;;;;;;-146.30;100.00;58188.94;10494720;28;20067;-82
2023/01/31 06:52:45;;;;;;;0.10;0.10;;;;;;;-146.30;100.00;58188.94;10485388;28;20412;-81
2023/01/31 06:57:48;;;;;;;0.47;0.47;;;;;;;-146.30;100.00;58188.94;10471300;28;20044;-80
2023/01/31 07:02:51;;;;;;;3.42;1.17;;;;;;;-146.30;100.00;58188.94;10470734;28;20052;-82
2023/01/31 07:07:52;;;;;;;1.90;1.02;;;;;;;-146.30;100.00;58188.94;10494010;28;20139;-82
2023/01/31 07:12:54;;;;;;;0.38;0.20;;;;;;;-146.30;100.00;58188.94;10484376;28;20044;-84
2023/01/31 07:17:59;;;;;;;0.17;0.17;;;;;;;-146.30;100.00;58188.94;10463678;28;20397;-82
2023/01/31 07:23:02;;;;;;;0.77;0.17;;;;;;;-146.30;100.00;58188.94;10467202;28;20040;-82
2023/01/31 07:28:06;;;;;;;1.58;0.90;;;;;;;-146.30;100.00;58188.94;10460363;28;20531;-83
2023/01/31 07:33:30;;;;;;;0.73;0.38;;;;;;;-146.30;100.00;58188.94;10457824;28;20048;-82
2023/01/31 07:38:33;;;;;;;1.55;0.55;;;;;;;-146.30;100.00;58188.94;10492474;28;20058;-82
2023/01/31 07:43:34;;;;;;;0.35;0.35;;;;;;;-146.30;100.00;58188.94;10529798;28;20040;-83
2023/01/31 07:48:36;;;;;;;0.35;0.32;;;;;;;-146.30;100.00;58188.94;10502101;28;20048;-82
2023/01/31 07:53:41;;;;;;;0.20;0.20;;;;;;;-146.30;100.00;58188.94;10468945;28;20128;-82
2023/01/31 07:58:44;;;;;;;0.10;0.10;;;;;;;-146.30;100.00;58188.94;10470966;28;20128;-83
2023/01/31 08:03:46;;;;;;;0.30;0.28;;;;;;;-146.30;100.00;58188.94;10478556;28;20044;-83
2023/01/31 08:09:42;;;;;;;0.00;0.00;;;;;;;-146.30;100.00;58188.94;10465333;28;20048;-84
2023/01/31 08:14:44;;;;;;;0.17;0.17;;;;;;;-146.30;100.00;58188.94;10456868;28;20052;-82
2023/01/31 08:19:46;;;;;;;1.58;1.15;;;;;;;-146.30;100.00;58188.94;10482215;28;20517;-84
2023/01/31 08:24:48;;;;;;;0.35;0.20;;;;;;;-146.30;100.00;58188.94;10469127;28;20048;-82
2023/01/31 08:29:49;;;;;;;3.10;2.13;;;;;;;-146.30;100.00;58188.94;10493798;28;20055;-83
2023/01/31 08:34:51;;;;;;;0.82;0.32;;;;;;;-146.30;100.00;58188.94;10461135;28;20160;-80
2023/01/31 08:39:52;;;;;;;0.10;0.10;;;;;;;-146.30;100.00;58188.94;10471934;28;20072;-83
2023/01/31 08:44:54;;;;;;;0.43;0.28;;;;;;;-146.30;100.00;58188.94;10477854;28;20076;-82
2023/01/31 08:49:56;;;;;;;0.17;0.17;;;;;;;-146.30;100.00;58188.94;10485097;28;20037;-83
2023/01/31 08:54:57;;;;;;;1.25;0.57;;;;;;;-146.30;100.00;58188.94;10477998;28;20053;-84
2023/01/31 08:59:59;;;;;;;0.25;0.20;;;;;;;-146.30;100.00;58188.94;10450847;28;20045;-83
2023/01/31 09:05:01;;;;;;;0.20;0.20;;;;;;;-146.30;100.00;58188.94;10480209;28;20049;-82
2023/01/31 09:10:02;;;;;;;0.00;0.00;;;;;;;-146.30;100.00;58188.94;10488229;28;20067;-82
2023/01/31 09:15:05;;;;;;;5.05;1.20;;;;;;;-146.30;100.00;58188.94;10469089;28;20075;-83
2023/01/31 09:20:08;;;;;;;0.63;0.32;;;;;;;-146.30;100.00;58188.94;10485656;28;20044;-81
2023/01/31 09:25:38;;;;;;;0.00;0.00;;;;;;;-146.30;100.00;58188.94;10498879;28;20040;-82
2023/01/31 09:30:49;;;;;;;0.17;0.17;;;;;;;-146.30;100.00;58188.94;10491012;28;20032;-81
2023/01/31 09:36:06;;;;;;;0.00;0.00;;;;;;;-146.30;100.00;58188.94;10484198;28;20116;-82
2023/01/31 09:41:30;;;;;;;1.17;1.08;;;;;;;-146.30;100.00;58188.94;10484639;28;20673;-83
2023/01/31 09:46:38;;;;;;;0.10;0.10;;;;;;;-146.30;100.00;58188.94;10516003;28;20054;-84
2023/01/31 09:51:40;;;;;;;3.53;2.00;;;;;;;-146.30;100.00;58188.94;10483274;28;20514;-83
2023/01/31 09:56:50;;;;;;;0.43;0.43;;;;;;;-146.30;100.00;58188.94;10467687;28;20052;-81
2023/01/31 10:02:26;;;;;;;0.00;0.00;;;;;;;-146.30;100.00;58188.94;10474681;28;20051;-82
2023/01/31 10:07:44;;;;;;;0.20;0.20;;;;;;;-146.30;100.00;58188.94;10475884;28;20053;-81
2023/01/31 10:12:50;;;;;;;2.10;0.55;;;;;;;-146.30;100.00;58188.94;10491420;28;20044;-83
2023/01/31 10:18:01;;;;;;;1.00;0.75;;;;;;;-146.30;100.00;58188.94;10467947;28;20056;-83
2023/01/31 10:23:22;;;;;;;0.25;0.20;;;;;;;-146.30;100.00;58188.94;10464216;28;20082;-82
2023/01/31 10:28:34;;;;;;;0.52;0.28;;;;;;;-146.30;100.00;58188.94;10490343;28;20048;-81
2023/01/31 10:33:54;;;;;;;0.43;0.43;;;;;;;-146.30;100.00;58188.94;10484055;28;20036;-83
2023/01/31 10:39:04;;;;;;;3.40;0.50;;;;;;;-146.30;100.00;58188.94;10481894;28;20044;-82
2023/01/31 10:44:12;;;;;;;;;;;;;;;-146.30;100.00;58188.94;10475419;28;20044;-80
2023/01/31 10:49:13;;;;;;;1.13;0.90;;;;;;;-146.30;100.00;58188.94;10475147;28;19920;-82
2023/01/31 10:54:25;;;;;;;1.75;0.50;;;;;;;-146.30;100.00;58188.94;10473304;28;20052;-81
2023/01/31 10:59:35;;;;;;;0.40;0.40;;;;;;;-146.30;100.00;58188.94;10477745;28;20472;-81
2023/01/31 11:04:41;;;;;;;0.15;0.13;;;;;;;-146.30;100.00;58188.94;10473342;28;20118;-80
2023/01/31 11:09:50;;;;;;;0.80;0.55;;;;;;;-146.30;100.00;58188.94;10494841;28;20044;-81
2023/01/31 11:15:06;;;;;;;0.32;0.32;;;;;;;-146.30;100.00;58188.94;10483029;28;20056;-81
2023/01/31 11:20:19;;;;;;;0.80;0.63;;;;;;;-146.30;100.00;58188.94;10476477;28;20037;-81
2023/01/31 11:25:23;;;;;;;0.45;0.30;;;;;;;-146.30;100.00;58188.94;10496097;28;20048;-80
2023/01/31 11:30:29;;;;;;;1.25;0.93;;;;;;;-146.30;100.00;58188.94;10507821;28;20040;-81
2023/01/31 11:35:33;;;;;;;0.15;0.13;;;;;;;-146.30;100.00;58188.94;10480342;28;20484;-82
2023/01/31 11:40:39;;;;;;;0.35;0.32;;;;;;;-146.30;100.00;58188.94;10490707;28;20052;-82
2023/01/31 11:46:01;;;;;;;0.38;0.32;;;;;;;-146.30;100.00;58188.94;10478534;28;20048;-81
2023/01/31 11:51:03;;;;;;;0.57;0.45;;;;;;;-146.30;100.00;58188.94;10479122;28;20044;-81
2023/01/31 11:56:26;;;;;;;0.40;0.40;;;;;;;-146.30;100.00;58188.94;10481370;28;20045;-81
2023/01/31 12:01:28;;;;;;;0.17;0.17;;;;;;;-146.30;100.00;58188.94;10479333;28;20043;-81
2023/01/31 12:06:35;;;;;;;0.30;0.30;;;;;;;-146.30;100.00;58188.94;10480606;28;20049;-82
2023/01/31 12:11:36;;;;;;;1.58;0.85;;;;;;;-146.30;100.00;58188.94;10500616;28;20411;-81
2023/01/31 12:16:38;;;;;;;0.52;0.52;;;;;;;-146.30;100.00;58188.94;10476674;28;20052;-80
2023/01/31 12:22:08;;;;;;;2.15;1.10;;;;;;;-146.30;100.00;58188.94;10481101;28;20045;-81
2023/01/31 12:27:12;;;;;;;0.98;0.85;;;;;;;-146.30;100.00;58188.94;10468695;28;20063;-82
2023/01/31 12:32:31;;;;;;;1.25;0.73;;;;;;;-146.30;100.00;58188.94;10472080;28;20041;-82
2023/01/31 12:37:49;;;;;;;3.15;0.95;;;;;;;-146.30;100.00;58188.94;10470745;28;20554;-82
2023/01/31 12:43:11;;;;;;;0.60;0.32;;;;;;;-146.30;100.00;58188.94;10479326;28;20040;-82
2023/01/31 12:48:33;;;;;;;0.73;0.57;;;;;;;-146.30;100.00;58188.94;10437821;28;20044;-82
2023/01/31 12:53:44;;;;;;;0.93;0.60;;;;;;;-146.30;100.00;58188.94;10481975;28;20036;-82
2023/01/31 12:59:10;;;;;;;0.45;0.40;;;;;;;-146.30;100.00;58188.94;10474818;28;20055;-83
2023/01/31 13:04:46;;;;;;;1.30;1.20;;;;;;;-146.30;100.00;58188.94;10474308;28;20403;-84
2023/01/31 13:09:51;;;;;;;0.22;0.13;;;;;;;-146.30;100.00;58188.94;10471789;28;20036;-83
2023/01/31 13:15:02;;;;;;;0.30;0.30;;;;;;;-146.30;100.00;58188.94;10473549;28;20052;-83
2023/01/31 13:20:10;;;;;;;0.30;0.30;;;;;;;-146.30;100.00;58188.94;10471704;28;20071;-84
2023/01/31 13:25:25;;;;;;;0.20;0.20;;;;;;;-146.30;100.00;58188.94;10494766;28;20060;-84
2023/01/31 13:31:00;;;;;;;0.17;0.15;;;;;;;-146.30;100.00;58188.94;10511458;28;20407;-84
2023/01/31 13:36:22;;;;;;;0.32;0.25;;;;;;;-146.30;100.00;58188.94;10461550;28;20056;-83
2023/01/31 13:41:31;;;;;;;0.17;0.17;;;;;;;-146.30;100.00;58188.94;10470948;28;20469;-84
2023/01/31 13:46:47;;;;;;;0.55;0.22;;;;;;;-146.30;100.00;58188.94;10520181;28;20127;-84
2023/01/31 13:51:56;;;;;;;0.40;0.33;;;;;;;-146.30;100.00;58188.94;10497935;28;20056;-83
2023/01/31 13:57:00;;;;;;;1.02;1.00;;;;;;;-146.30;100.00;58188.94;10464490;28;20126;-83
2023/01/31 14:02:06;;;;;;;0.08;0.08;;;;;;;-146.30;100.00;58188.94;10492451;28;20567;-84
2023/01/31 14:07:11;;;;;;;0.73;0.45;;;;;;;-146.30;100.00;58188.94;10480381;28;20487;-83
2023/01/31 14:12:16;;;;;;;0.93;0.57;;;;;;;-146.30;100.00;58188.94;10479416;28;20442;-84
2023/01/31 14:17:27;;;;;;;0.63;0.40;;;;;;;-146.30;100.00;58188.94;10496908;28;20048;-83
2023/01/31 14:22:36;;;;;;;1.33;1.23;;;;;;;-146.30;100.00;58188.94;10486133;28;20044;-83
2023/01/31 14:27:37;;;;;;;0.57;0.35;;;;;;;-146.30;100.00;58188.94;10507735;28;20048;-84
2023/01/31 14:32:46;;;;;;;0.13;0.13;;;;;;;-146.30;100.00;58188.94;10504912;28;20123;-82
2023/01/31 14:38:10;;;;;;;0.20;0.20;;;;;;;-146.30;100.00;58188.94;10472091;28;20446;-84
2023/01/31 14:43:40;;;;;;;0.17;0.17;;;;;;;-146.30;100.00;58188.94;10493985;28;20044;-85
2023/01/31 14:49:22;;;;;;;1.17;0.50;;;;;;;-146.30;100.00;58188.94;10499387;28;20059;-83
2023/01/31 14:54:53;;;;;;;0.17;0.17;;;;;;;-146.30;100.00;58188.94;10467138;28;20064;-86
2023/01/31 15:00:05;;;;;;;1.17;0.47;;;;;;;-146.30;100.00;58188.94;10483009;28;20060;-83
2023/01/31 15:05:48;;;;;;;7.10;1.13;;;;;;;-146.30;100.00;58188.94;10464014;28;20040;-82
2023/01/31 15:11:32;;;;;;;0.93;0.47;;;;;;;-146.30;100.00;58188.94;10294625;28;20055;-84
2023/01/31 15:16:43;;;;;;;2.95;0.57;;;;;;;-146.30;100.00;58188.94;10474138;28;20500;-84
2023/01/31 15:21:55;;;;;;;1.45;0.90;;;;;;;-146.30;100.00;58188.94;10498930;28;20036;-82
2023/01/31 15:26:59;;;;;;;0.60;0.30;;;;;;;-146.30;100.00;58188.94;10487684;28;20056;-83
2023/01/31 15:32:18;;;;;;;3.00;1.45;;;;;;;-146.30;100.00;58188.94;10489752;28;20037;-81
2023/01/31 15:37:24;;;;;;;18.08;1.20;;;;;;;-146.30;100.00;58188.94;10463431;28;20538;-83
2023/01/31 15:42:30;;;;;;;3.72;1.27;;;;;;;-146.30;100.00;58188.94;10493821;28;20040;-79
2023/01/31 15:47:33;;;;;;;0.22;0.20;;;;;;;-146.30;100.00;58188.94;10470399;28;20123;-80
2023/01/31 15:52:35;;;;;;;0.10;0.10;;;;;;;-146.30;100.00;58188.94;10454940;28;20165;-80
2023/01/31 15:58:01;;;;;;;0.20;0.13;;;;;;;-146.30;100.00;58188.94;10457552;28;20048;-81
2023/01/31 16:03:06;;;;;;;0.00;0.00;;;;;;;-146.30;100.00;58188.94;10469805;28;20049;-81
2023/01/31 16:08:35;;;;;;;0.03;0.03;;;;;;;-146.30;100.00;58188.94;10465296;28;20103;-81
2023/01/31 16:13:40;;;;;;;0.00;0.00;;;;;;;-146.30;100.00;58188.94;10463878;28;20045;-81
2023/01/31 16:18:49;;;;;;;0.38;0.25;;;;;;;-146.30;100.00;58188.94;10480933;28;20048;-81
2023/01/31 16:24:00;;;;;;;0.17;0.15;;;;;;;-146.30;100.00;58188.94;10476134;28;20056;-85
2023/01/31 16:29:08;;;;;;;0.10;0.10;;;;;;;-146.30;100.00;58188.94;10498637;28;20098;-85
2023/01/31 16:34:27;;;;;;;5.43;0.40;;;;;;;-146.30;100.00;58188.94;10476004;28;20044;-84
2023/01/31 16:39:33;;;;;;;0.00;0.00;;;;;;;-146.30;100.00;58188.94;10468482;28;20044;-85
2023/01/31 16:44:40;;;;;;;0.10;0.10;;;;;;;-146.30;100.00;58188.94;10478844;28;20045;-84
2023/01/31 16:49:42;;;;;;;0.00;0.00;;;;;;;-146.30;100.00;58188.94;10471314;28;20106;-87
2023/01/31 16:54:49;;;;;;;0.10;0.10;;;;;;;-146.30;100.00;58188.94;10481681;28;20139;-86
2023/01/31 16:59:58;;;;;;;0.10;0.10;;;;;;;-146.30;100.00;58188.94;10463488;28;20048;-86
2023/01/31 17:05:15;;;;;;;0.10;0.10;;;;;;;-146.30;100.00;58188.94;10476941;28;20075;-85
2023/01/31 17:10:22;;;;;;;0.00;0.00;;;;;;;-146.30;100.00;58188.94;10476236;28;20309;-86
2023/01/31 17:15:24;;;;;;;2.30;0.70;;;;;;;-146.30;100.00;58188.94;10490694;28;20063;-86
2023/01/31 17:20:25;;;;;;;0.15;0.15;;;;;;;-146.30;100.00;58188.94;10475726;28;20396;-87
2023/01/31 17:25:32;;;;;;;0.80;0.70;;;;;;;-146.30;100.00;58188.94;10490577;28;20060;-87
2023/01/31 17:30:38;;;;;;;0.00;0.00;;;;;;;-146.30;100.00;58188.94;10490366;28;20048;-86
2023/01/31 17:35:45;;;;;;;0.30;0.22;;;;;;;-146.30;100.00;58188.94;10485137;28;20453;-85
2023/01/31 17:40:48;;;;;;;0.00;0.00;;;;;;;-146.30;100.00;58188.94;10483318;28;20040;-87
2023/01/31 17:45:49;;;;;;;0.20;0.20;;;;;;;-146.30;100.00;58188.94;10486579;28;20039;-84
2023/01/31 17:50:51;;;;;;;0.10;0.10;;;;;;;-146.30;100.00;58188.94;10544291;28;20039;-85
2023/01/31 17:55:54;;;;;;;1.33;0.43;;;;;;;-146.30;100.00;58188.94;10481968;28;20091;-81
2023/01/31 18:00:55;;;;;;;0.80;0.60;;;;;;;-146.30;100.00;58188.94;10486776;28;20530;-83
2023/01/31 18:06:22;;;;;;;0.10;0.10;;;;;;;-146.30;100.00;58188.94;10474814;28;20044;-86
2023/01/31 18:11:24;;;;;;;0.00;0.00;;;;;;;-146.30;100.00;58188.94;10478595;28;20098;-85
2023/01/31 18:16:25;;;;;;;1.25;0.52;;;;;;;-146.30;100.00;58188.94;10471188;28;20045;-84
2023/01/31 18:21:29;;;;;;;1.23;0.90;;;;;;;-146.30;100.00;58188.94;10462114;28;20137;-84
2023/01/31 18:26:32;;;;;;;0.57;0.57;;;;;;;-146.30;100.00;58188.94;10489472;28;20487;-86
2023/01/31 18:31:34;;;;;;;0.00;0.00;;;;;;;-146.30;100.00;58188.94;10496793;28;20036;-86
2023/01/31 18:36:36;;;;;;;2.70;0.15;;;;;;;-146.30;100.00;58188.94;10502241;28;20101;-85
2023/01/31 18:41:38;;;;;;;1.00;0.68;;;;;;;-146.30;100.00;58188.94;10509390;28;20044;-86
2023/01/31 18:46:39;;;;;;;3.83;0.90;;;;;;;-146.30;100.00;58188.94;10495321;28;20071;-86
2023/01/31 18:51:41;;;;;;;0.15;0.15;;;;;;;-146.30;100.00;58188.94;10490957;28;20032;-86
2023/01/31 18:56:43;;;;;;;2.30;1.02;;;;;;;-146.30;100.00;58188.94;10474789;28;20056;-87
2023/01/31 19:01:45;;;;;;;0.00;0.00;;;;;;;-146.30;100.00;58188.94;10464011;28;20446;-85
2023/01/31 19:06:50;;;;;;;3.70;1.00;;;;;;;-146.30;100.00;58188.94;10466222;28;20257;-85
2023/01/31 19:11:52;;;;;;;0.00;0.00;;;;;;;-146.30;100.00;58188.94;10456705;28;20454;-85
2023/01/31 19:16:53;;;;;;;0.10;0.10;;;;;;;-146.30;100.00;58188.94;10479966;28;20048;-87
2023/01/31 19:21:55;;;;;;;0.10;0.10;;;;;;;-146.30;100.00;58188.94;10479975;28;20041;-86
2023/01/31 19:26:56;;;;;;;0.90;0.30;;;;;;;-146.30;100.00;58188.94;10481116;28;20448;-88
2023/01/31 19:31:58;;;;;;;9.88;0.28;;;;;;;-146.30;100.00;58188.94;10455458;28;20129;-86
2023/01/31 19:37:00;;;;;;;0.03;0.03;;;;;;;-146.30;100.00;58188.94;10488542;28;20051;-85
2023/01/31 19:42:02;;;;;;;0.00;0.00;;;;;;;-146.30;100.00;58188.94;10482397;28;20040;-86
2023/01/31 19:47:03;;;;;;;1.42;0.60;;;;;;;-146.30;100.00;58188.94;10492130;28;20504;-88
2023/01/31 19:52:05;;;;;;;0.13;0.13;;;;;;;-146.30;100.00;58188.94;10483446;28;20052;-86
2023/01/31 19:57:07;;;;;;;0.10;0.10;;;;;;;-146.30;100.00;58188.94;10533321;28;20030;-84
2023/01/31 20:02:10;;;;;;;1.55;1.25;;;;;;;-146.30;100.00;58188.94;10491767;28;20059;-84
2023/01/31 20:07:12;;;;;;;0.00;0.00;;;;;;;-146.30;100.00;58188.94;10465003;28;20488;-86
2023/01/31 20:12:13;;;;;;;0.10;0.08;;;;;;;-146.30;100.00;58188.94;10497268;28;20040;-84
2023/01/31 20:17:15;;;;;;;0.57;0.57;;;;;;;-146.30;100.00;58188.94;10484191;28;20458;-85
2023/01/31 20:22:20;;;;;;;0.10;0.05;;;;;;;-146.30;100.00;58188.94;10523491;28;20459;-84
2023/01/31 20:27:24;;;;;;;1.55;0.55;;;;;;;-146.30;100.00;58188.94;10455861;28;20143;-85
2023/01/31 20:32:25;;;;;;;0.10;0.10;;;;;;;-146.30;100.00;58188.94;10465907;28;20101;-85
2023/01/31 20:37:27;;;;;;;0.25;0.25;;;;;;;-146.30;100.00;58188.94;10469230;28;20091;-86
2023/01/31 20:42:31;;;;;;;0.25;0.25;;;;;;;-146.30;100.00;58188.94;10455026;28;20037;-86
2023/01/31 20:47:32;;;;;;;2.10;0.70;;;;;;;-146.30;100.00;58188.94;10476443;28;20114;-85
2023/01/31 20:52:35;;;;;;;0.00;0.00;;;;;;;-146.30;100.00;58188.94;10466746;28;20052;-85
2023/01/31 20:57:40;;;;;;;0.35;0.35;;;;;;;-146.30;100.00;58188.94;10463832;28;20044;-85
2023/01/31 21:02:42;;;;;;;0.28;0.10;;;;;;;-146.30;100.00;58188.94;10454899;28;20132;-84
2023/01/31 21:07:44;;;;;;;0.68;0.68;;;;;;;-146.30;100.00;58188.94;10497814;28;20041;-84
2023/01/31 21:12:45;;;;;;;0.45;0.38;;;;;;;-146.30;100.00;58188.94;10503956;28;20098;-86
2023/01/31 21:17:47;;;;;;;0.00;0.00;;;;;;;-146.30;100.00;58188.94;10479320;28;20070;-85
2023/01/31 21:22:49;;;;;;;0.10;0.10;;;;;;;-146.30;100.00;58188.94;10475392;28;20056;-85
2023/01/31 21:27:50;;;;;;;0.20;0.20;;;;;;;-146.30;100.00;58188.94;10489512;28;20446;-86
2023/01/31 21:32:52;;;;;;;0.00;0.00;;;;;;;-146.30;100.00;58188.94;10466607;28;20045;-86
2023/01/31 21:37:53;;;;;;;0.00;0.00;;;;;;;-146.30;100.00;58188.94;10505632;28;20041;-85
2023/01/31 21:42:55;;;;;;;3.67;0.75;;;;;;;-146.30;100.00;58188.94;10486821;28;20530;-84
2023/01/31 21:53:17;;;;;;;0.00;0.00;;;;;;;-146.30;100.00;58188.94;10468006;28;20053;-85
2023/01/31 21:58:19;;;;;;;0.00;0.00;;;;;;;-146.30;100.00;58188.94;10506080;28;20102;-84
2023/01/31 22:03:21;;;;;;;0.00;0.00;;;;;;;-146.30;100.00;58188.94;10474727;28;20060;-84
2023/01/31 22:08:22;;;;;;;0.10;0.10;;;;;;;-146.30;100.00;58188.94;10482310;28;20094;-86
2023/01/31 22:13:24;;;;;;;0.45;0.40;;;;;;;-146.30;100.00;58188.94;10467631;28;20055;-85
2023/01/31 22:18:28;;;;;;;1.98;0.60;;;;;;;-146.30;100.00;58188.94;10490535;28;20056;-85
2023/01/31 22:23:32;;;;;;;0.00;0.00;;;;;;;-146.30;100.00;58188.94;10469763;28;20406;-84
2023/01/31 22:28:34;;;;;;;0.10;0.10;;;;;;;-146.30;100.00;58188.94;10485397;28;20040;-84
2023/01/31 22:33:41;;;;;;;0.40;0.30;;;;;;;-146.30;100.00;58188.94;10475450;28;20169;-84
2023/01/31 22:38:44;;;;;;;0.00;0.00;;;;;;;-146.30;100.00;58188.94;10499934;28;20037;-84
2023/01/31 22:43:48;;;;;;;1.75;1.65;;;;;;;-146.30;100.00;58188.94;10478105;28;20044;-85
2023/01/31 22:48:50;;;;;;;0.10;0.10;;;;;;;-146.30;100.00;58188.94;10499380;28;20040;-82
2023/01/31 22:53:53;;;;;;;16.45;0.32;;;;;;;-146.30;100.00;58188.94;10476710;28;20565;-82
2023/01/31 22:58:59;;;;;;;0.00;0.00;;;;;;;-146.30;100.00;58188.94;10483338;28;20040;-81
2023/01/31 23:04:03;;;;;;;0.00;0.00;;;;;;;-146.30;100.00;58188.94;10520276;28;20484;-83
2023/01/31 23:09:05;;;;;;;0.30;0.00;;;;;;;-146.30;100.00;58188.94;10482191;28;20495;-84